FDPP

Piggs Peak

Piggs Peak, Swaziland
METAR FDPP 172200Z AUTO 36010KT //// // ////// 04/04 Q1029
Observed Flight Rules
Aug-17 @ 22:00 UTC (37 minutes ago)
Wind
360° at 10 knots
Temperatures Readings
Current 4°C / 39°F
Dewpoint 4°C / 39°F
Humidity 100%
Altimeter 30.38" Hg
Pressure 1029 hPa
Elevation 1099
METAR FDPP 172200Z AUTO 36010KT //// // ////// 04/04 Q1029
Observed Flight Rules
Aug-17 @ 22:00 UTC
(37 minutes ago)
Wind
360° at 10 knots
Temperature Dewpoint
4°C / 39°F 4°C / 39°F
Humidity Altimeter Pressure
100% 30.38" Hg 1029 hPa